createdAt,value
2023-05-05T00:00:15.891Z,14.83
2023-05-05T00:02:42.647Z,14.74
2023-05-05T00:05:09.520Z,14.76
2023-05-05T00:07:36.049Z,14.75
2023-05-05T00:10:02.717Z,14.80
2023-05-05T00:12:29.259Z,14.85
2023-05-05T00:14:57.079Z,14.84
2023-05-05T00:17:23.570Z,14.80
2023-05-05T00:19:49.984Z,14.75
2023-05-05T00:22:16.457Z,14.73
2023-05-05T00:24:42.856Z,14.74
2023-05-05T00:27:10.372Z,14.72
2023-05-05T00:29:37.810Z,14.68
2023-05-05T00:32:04.391Z,14.66
2023-05-05T00:34:30.857Z,14.58
2023-05-05T00:36:57.354Z,14.60
2023-05-05T00:39:24.230Z,14.61
2023-05-05T00:41:50.736Z,14.56
2023-05-05T00:44:17.132Z,14.55
2023-05-05T00:46:44.031Z,14.50
2023-05-05T00:49:12.122Z,14.48
2023-05-05T00:51:38.612Z,14.45
2023-05-05T00:54:05.709Z,14.45
2023-05-05T00:56:32.351Z,14.44
2023-05-05T00:58:59.382Z,14.42
2023-05-05T01:01:25.821Z,14.40
2023-05-05T01:03:52.522Z,14.37
2023-05-05T01:06:31.719Z,14.41
2023-05-05T01:09:19.801Z,14.37
2023-05-05T01:11:56.526Z,14.38
2023-05-05T01:14:31.925Z,14.42
2023-05-05T01:17:08.569Z,14.39
2023-05-05T01:19:58.763Z,14.42
2023-05-05T01:22:34.882Z,14.42
2023-05-05T01:25:35.074Z,14.50
2023-05-05T01:28:24.103Z,14.54
2023-05-05T01:31:08.864Z,14.56
2023-05-05T01:33:43.883Z,14.57
2023-05-05T01:36:22.455Z,14.61
2023-05-05T01:38:55.739Z,14.67
2023-05-05T01:41:28.343Z,14.75
2023-05-05T01:43:57.043Z,14.77
2023-05-05T01:46:24.558Z,14.78
2023-05-05T01:48:53.685Z,14.82
2023-05-05T01:51:23.160Z,14.86
2023-05-05T01:53:56.604Z,14.85
2023-05-05T01:56:25.085Z,14.91
2023-05-05T01:58:52.796Z,14.99
2023-05-05T02:01:24.821Z,15.04
2023-05-05T02:03:56.882Z,15.07
2023-05-05T02:06:24.649Z,15.11
2023-05-05T02:08:52.967Z,15.14
2023-05-05T02:11:21.696Z,15.15
2023-05-05T02:13:49.981Z,15.15
2023-05-05T02:16:18.571Z,15.15
2023-05-05T02:18:48.602Z,15.13
2023-05-05T02:21:17.881Z,15.08
2023-05-05T02:23:51.604Z,15.02
2023-05-05T02:26:21.817Z,14.92
2023-05-05T02:28:58.382Z,14.84
2023-05-05T02:31:27.696Z,14.76
2023-05-05T02:33:57.284Z,14.72
2023-05-05T02:36:29.336Z,14.67
2023-05-05T02:39:03.493Z,14.60
2023-05-05T02:41:38.237Z,14.53
2023-05-05T02:44:12.484Z,14.44
2023-05-05T02:46:39.383Z,14.34
2023-05-05T02:49:06.213Z,14.26
2023-05-05T02:51:32.711Z,14.17
2023-05-05T02:54:04.100Z,14.11
2023-05-05T02:56:42.908Z,13.98
2023-05-05T02:59:33.472Z,13.85
2023-05-05T03:02:08.150Z,13.75
2023-05-05T03:04:40.360Z,13.67
2023-05-05T03:07:12.244Z,13.57
2023-05-05T03:09:45.469Z,13.54
2023-05-05T03:12:20.209Z,13.46
2023-05-05T03:15:00.717Z,13.40
2023-05-05T03:17:31.632Z,13.35
2023-05-05T03:20:01.621Z,13.29
2023-05-05T03:22:31.319Z,13.25
2023-05-05T03:24:57.838Z,13.21
2023-05-05T03:27:24.582Z,13.16
2023-05-05T03:29:52.570Z,13.07
2023-05-05T03:32:19.883Z,13.01
2023-05-05T03:34:46.455Z,13.02
2023-05-05T03:37:12.962Z,12.99
2023-05-05T03:39:41.384Z,12.99
2023-05-05T03:42:09.350Z,12.97
2023-05-05T03:44:36.050Z,12.97
2023-05-05T03:47:02.561Z,12.95
2023-05-05T03:49:31.660Z,12.92
2023-05-05T03:51:58.401Z,12.90
2023-05-05T03:54:24.939Z,12.87
2023-05-05T03:56:51.836Z,12.84
2023-05-05T03:59:18.344Z,12.83
2023-05-05T04:01:46.536Z,12.85
2023-05-05T04:04:13.108Z,12.93
2023-05-05T04:06:39.589Z,12.94
2023-05-05T04:09:07.097Z,12.97
2023-05-05T04:11:33.566Z,12.97
2023-05-05T04:14:00.675Z,12.97
2023-05-05T04:16:28.991Z,12.95
2023-05-05T04:18:56.195Z,12.96
2023-05-05T04:21:22.739Z,12.95
2023-05-05T04:23:52.801Z,12.94
2023-05-05T04:26:20.936Z,12.93
2023-05-05T04:28:48.512Z,12.91
2023-05-05T04:31:16.182Z,12.93
2023-05-05T04:33:44.146Z,12.97
2023-05-05T04:36:11.088Z,12.98
2023-05-05T04:38:39.974Z,12.97
2023-05-05T04:41:06.919Z,12.99
2023-05-05T04:43:34.795Z,13.02
2023-05-05T04:46:01.707Z,13.02
2023-05-05T04:48:31.323Z,13.03
2023-05-05T04:50:57.751Z,13.08
2023-05-05T04:53:24.274Z,13.14
2023-05-05T04:55:50.751Z,13.18
2023-05-05T04:58:17.681Z,13.22
2023-05-05T05:00:45.109Z,13.24
2023-05-05T05:03:11.985Z,13.25
2023-05-05T05:05:38.561Z,13.27
2023-05-05T05:08:05.482Z,13.30
2023-05-05T05:10:32.157Z,13.30
2023-05-05T05:12:58.648Z,13.34
2023-05-05T05:15:26.703Z,13.40
2023-05-05T05:17:53.503Z,13.46
2023-05-05T05:20:20.925Z,13.50
2023-05-05T05:22:47.422Z,13.54
2023-05-05T05:25:19.967Z,13.62
2023-05-05T05:28:02.012Z,13.65
2023-05-05T05:30:33.312Z,13.71
2023-05-05T05:33:00.373Z,13.73
2023-05-05T05:35:27.799Z,13.78
2023-05-05T05:37:54.480Z,13.84
2023-05-05T05:40:21.085Z,13.89
2023-05-05T05:42:47.664Z,13.97
2023-05-05T05:45:14.225Z,14.04
2023-05-05T05:47:41.047Z,14.15
2023-05-05T05:50:08.709Z,14.17
2023-05-05T05:52:36.204Z,14.26
2023-05-05T05:55:05.812Z,14.37
2023-05-05T05:57:32.410Z,14.51
2023-05-05T06:00:05.313Z,14.61
2023-05-05T06:02:39.363Z,14.67
2023-05-05T06:05:10.482Z,14.85
2023-05-05T06:07:37.019Z,15.47
2023-05-05T06:10:18.399Z,16.88
2023-05-05T06:12:50.500Z,21.36
2023-05-05T06:15:17.542Z,24.41
2023-05-05T06:17:44.146Z,26.11
2023-05-05T06:20:11.317Z,27.45
2023-05-05T06:22:37.795Z,28.68
2023-05-05T06:25:04.657Z,29.14
2023-05-05T06:27:31.240Z,29.85
2023-05-05T06:29:57.650Z,30.75
2023-05-05T06:32:24.183Z,30.72
2023-05-05T06:34:50.740Z,31.09
2023-05-05T06:37:17.213Z,31.34
2023-05-05T06:39:43.772Z,31.02
2023-05-05T06:42:10.214Z,30.81
2023-05-05T06:44:36.688Z,30.99
2023-05-05T06:47:03.960Z,31.96
2023-05-05T06:49:30.436Z,31.81
2023-05-05T06:51:56.982Z,32.00
2023-05-05T06:54:23.601Z,32.40
2023-05-05T06:56:50.028Z,32.26
2023-05-05T06:59:16.545Z,32.12
2023-05-05T07:01:42.933Z,32.36
2023-05-05T07:04:09.436Z,31.75
2023-05-05T07:06:36.256Z,32.41
2023-05-05T07:09:04.300Z,31.76
2023-05-05T07:11:31.157Z,32.54
2023-05-05T07:13:57.543Z,33.43
2023-05-05T07:16:25.273Z,32.11
2023-05-05T07:18:51.704Z,30.74
2023-05-05T07:21:18.170Z,31.27
2023-05-05T07:23:46.178Z,30.79
2023-05-05T07:26:12.792Z,30.12
2023-05-05T07:28:39.279Z,27.95
2023-05-05T07:31:05.907Z,26.61
2023-05-05T07:33:32.324Z,28.72
2023-05-05T07:35:58.812Z,30.88
2023-05-05T07:38:25.702Z,30.67
2023-05-05T07:40:52.105Z,30.37
2023-05-05T07:43:18.554Z,30.55
2023-05-05T07:45:45.095Z,30.48
2023-05-05T07:48:11.657Z,30.52
2023-05-05T07:50:38.149Z,31.19
2023-05-05T07:53:13.631Z,30.30
2023-05-05T07:55:40.652Z,29.32
2023-05-05T07:58:07.484Z,28.41
2023-05-05T08:00:34.057Z,29.68
2023-05-05T08:03:00.742Z,30.49
2023-05-05T08:05:27.358Z,30.35
2023-05-05T08:07:53.878Z,30.21
2023-05-05T08:10:22.335Z,30.47
2023-05-05T08:12:49.096Z,30.47
2023-05-05T08:15:16.008Z,30.16
2023-05-05T08:17:51.517Z,30.43
2023-05-05T08:20:19.520Z,29.83
2023-05-05T08:22:46.796Z,27.61
2023-05-05T08:25:13.837Z,27.74
2023-05-05T08:27:41.525Z,28.95
2023-05-05T08:30:10.786Z,28.87
2023-05-05T08:32:38.602Z,29.82
2023-05-05T08:35:06.571Z,30.46
2023-05-05T08:37:33.491Z,28.94
2023-05-05T08:40:01.471Z,26.80
2023-05-05T08:42:37.796Z,25.16
2023-05-05T08:45:07.580Z,24.60
2023-05-05T08:47:38.080Z,24.45
2023-05-05T08:50:06.811Z,24.41
2023-05-05T08:52:41.857Z,24.15
2023-05-05T08:55:24.739Z,24.01
2023-05-05T08:57:56.741Z,23.85
2023-05-05T09:00:26.886Z,23.72
2023-05-05T09:02:56.735Z,23.61
2023-05-05T09:05:23.471Z,23.72
2023-05-05T09:07:50.565Z,23.47
2023-05-05T09:10:18.041Z,23.11
2023-05-05T09:12:44.639Z,22.99
2023-05-05T09:15:13.643Z,22.88
2023-05-05T09:17:40.801Z,22.58
2023-05-05T09:20:12.444Z,22.58
2023-05-05T09:22:44.146Z,22.55
2023-05-05T09:25:12.633Z,22.64
2023-05-05T09:27:42.213Z,22.61
2023-05-05T09:30:11.141Z,22.87
2023-05-05T09:32:49.129Z,22.65
2023-05-05T09:35:16.858Z,22.80
2023-05-05T09:37:43.980Z,22.75
2023-05-05T09:40:11.861Z,22.51
2023-05-05T09:42:41.468Z,22.33
2023-05-05T09:45:22.919Z,22.34
2023-05-05T09:47:49.567Z,22.27
2023-05-05T09:50:20.889Z,21.85
2023-05-05T09:52:59.003Z,21.59
2023-05-05T09:55:25.905Z,21.61
2023-05-05T09:57:52.632Z,21.60
2023-05-05T10:00:19.670Z,21.62
2023-05-05T10:02:46.453Z,21.43
2023-05-05T10:05:18.155Z,21.44
2023-05-05T10:07:46.804Z,21.22
2023-05-05T10:10:16.200Z,21.23
2023-05-05T10:12:43.323Z,21.30
2023-05-05T10:15:11.625Z,21.03
2023-05-05T10:18:02.365Z,20.08
2023-05-05T10:20:33.308Z,19.05
2023-05-05T10:23:02.797Z,18.19
2023-05-05T10:25:31.447Z,17.31
2023-05-05T10:28:01.161Z,16.97
2023-05-05T10:30:34.279Z,16.81
2023-05-05T10:33:22.292Z,16.64
2023-05-05T10:35:53.806Z,16.55
2023-05-05T10:38:20.679Z,16.54
2023-05-05T10:40:50.963Z,16.73
2023-05-05T10:43:17.874Z,16.78
2023-05-05T10:45:44.867Z,16.81
2023-05-05T10:48:27.355Z,16.60
2023-05-05T10:51:01.822Z,16.39
2023-05-05T10:53:30.896Z,16.23
2023-05-05T10:56:05.829Z,16.17
2023-05-05T10:58:55.649Z,16.15
2023-05-05T11:01:35.642Z,16.10
2023-05-05T11:04:21.388Z,16.07
2023-05-05T11:07:13.456Z,15.83
2023-05-05T11:10:15.595Z,15.82
2023-05-05T11:12:52.410Z,15.86
2023-05-05T11:15:31.314Z,15.84
2023-05-05T11:17:59.430Z,15.77
2023-05-05T11:20:35.012Z,15.69
2023-05-05T11:23:05.208Z,15.61
2023-05-05T11:25:35.066Z,15.60
2023-05-05T11:28:08.322Z,15.74
2023-05-05T11:30:36.672Z,15.78
2023-05-05T11:33:25.714Z,15.76
2023-05-05T11:36:12.110Z,15.47
2023-05-05T11:39:00.143Z,15.36
2023-05-05T11:41:33.044Z,15.37
2023-05-05T11:44:12.446Z,15.35
2023-05-05T11:47:07.812Z,15.38
2023-05-05T11:49:38.908Z,15.37
2023-05-05T11:52:08.205Z,15.35
2023-05-05T11:54:36.224Z,15.28
2023-05-05T11:57:05.434Z,15.30
2023-05-05T11:59:32.606Z,15.30
2023-05-05T12:01:59.549Z,15.27
2023-05-05T12:04:26.592Z,15.36
2023-05-05T12:06:55.252Z,15.29
2023-05-05T12:09:23.079Z,15.39
2023-05-05T12:11:56.603Z,15.39
2023-05-05T12:14:25.432Z,15.42
2023-05-05T12:16:58.110Z,15.43
2023-05-05T12:19:29.738Z,15.38
2023-05-05T12:21:56.988Z,15.52
2023-05-05T12:24:23.656Z,15.63
2023-05-05T12:26:50.147Z,15.63
2023-05-05T12:29:29.434Z,15.66
2023-05-05T12:31:57.792Z,15.51
2023-05-05T12:34:24.507Z,15.52
2023-05-05T12:36:51.164Z,15.57
2023-05-05T12:39:17.854Z,15.62
2023-05-05T12:41:45.962Z,15.56
2023-05-05T12:44:12.545Z,15.47
2023-05-05T12:46:46.636Z,15.47
2023-05-05T12:49:13.341Z,15.54
2023-05-05T12:51:52.936Z,15.58
2023-05-05T12:54:19.612Z,15.61
2023-05-05T12:56:47.660Z,15.70
2023-05-05T12:59:23.374Z,15.69
2023-05-05T13:01:57.030Z,15.75
2023-05-05T13:04:25.159Z,15.77
2023-05-05T13:07:11.631Z,15.71
2023-05-05T13:09:38.601Z,15.87
2023-05-05T13:12:05.784Z,15.96
2023-05-05T13:14:32.405Z,15.96
2023-05-05T13:16:58.825Z,15.81
2023-05-05T13:19:25.653Z,15.72
2023-05-05T13:21:52.730Z,15.60
2023-05-05T13:24:31.067Z,15.55
2023-05-05T13:27:00.461Z,15.45
2023-05-05T13:29:31.140Z,15.37
2023-05-05T13:31:58.019Z,15.33
2023-05-05T13:34:25.684Z,15.45
2023-05-05T13:36:52.297Z,15.55
2023-05-05T13:39:20.363Z,15.51
2023-05-05T13:41:46.865Z,15.43
2023-05-05T13:44:13.979Z,15.36
2023-05-05T13:46:42.151Z,15.29
2023-05-05T13:49:08.656Z,15.19
2023-05-05T13:51:35.263Z,15.10
2023-05-05T13:54:01.965Z,15.12
2023-05-05T13:56:28.506Z,15.08
2023-05-05T13:58:55.000Z,15.06
2023-05-05T14:01:21.496Z,15.05
2023-05-05T14:03:48.076Z,15.04
2023-05-05T14:06:14.631Z,15.11
2023-05-05T14:08:41.484Z,15.14
2023-05-05T14:11:07.979Z,15.16
2023-05-05T14:13:34.598Z,15.23
2023-05-05T14:16:02.640Z,15.17
2023-05-05T14:18:29.634Z,15.13
2023-05-05T14:20:56.180Z,15.16
2023-05-05T14:23:22.635Z,15.10
2023-05-05T14:25:49.143Z,15.15
2023-05-05T14:28:15.995Z,15.39
2023-05-05T14:30:42.659Z,15.49
2023-05-05T14:33:09.146Z,15.49
2023-05-05T14:35:35.817Z,15.42
2023-05-05T14:38:02.355Z,15.31
2023-05-05T14:40:30.182Z,15.22
2023-05-05T14:42:57.663Z,15.11
2023-05-05T14:45:24.142Z,15.08
2023-05-05T14:47:50.870Z,15.06
2023-05-05T14:50:17.410Z,15.12
2023-05-05T14:52:44.393Z,15.25
2023-05-05T14:55:11.727Z,15.55
2023-05-05T14:57:38.744Z,15.85
2023-05-05T15:00:07.085Z,16.05
2023-05-05T15:02:33.761Z,16.32
2023-05-05T15:05:01.976Z,16.47
2023-05-05T15:07:29.052Z,16.50
2023-05-05T15:09:58.128Z,16.27
2023-05-05T15:12:25.919Z,16.15
2023-05-05T15:14:52.384Z,15.97
2023-05-05T15:17:18.855Z,15.78
2023-05-05T15:19:45.300Z,15.55
2023-05-05T15:22:11.769Z,15.42
2023-05-05T15:24:38.349Z,15.38
2023-05-05T15:27:05.079Z,15.41
2023-05-05T15:29:31.629Z,15.54
2023-05-05T15:31:58.183Z,15.75
2023-05-05T15:34:24.971Z,15.89
2023-05-05T15:36:51.508Z,15.91
2023-05-05T15:39:17.974Z,15.88
2023-05-05T15:41:44.427Z,16.13
2023-05-05T15:44:12.553Z,16.32
2023-05-05T15:46:41.660Z,16.25
2023-05-05T15:49:08.412Z,16.09
2023-05-05T15:51:35.035Z,15.87
2023-05-05T15:54:01.983Z,15.71
2023-05-05T15:56:29.295Z,15.66
2023-05-05T15:58:56.639Z,15.61
2023-05-05T16:01:23.243Z,15.66
2023-05-05T16:03:49.762Z,15.68
2023-05-05T16:06:16.294Z,15.71
2023-05-05T16:08:47.635Z,15.74
2023-05-05T16:11:14.357Z,15.82
2023-05-05T16:13:42.406Z,15.96
2023-05-05T16:16:08.905Z,16.12
2023-05-05T16:18:35.456Z,16.23
2023-05-05T16:21:02.554Z,16.44
2023-05-05T16:23:29.048Z,16.58
2023-05-05T16:25:55.556Z,16.77
2023-05-05T16:28:22.074Z,16.85
2023-05-05T16:30:48.616Z,16.83
2023-05-05T16:33:17.797Z,16.85
2023-05-05T16:35:45.719Z,16.86
2023-05-05T16:38:13.260Z,16.86
2023-05-05T16:40:40.095Z,16.80
2023-05-05T16:43:06.567Z,16.75
2023-05-05T16:45:33.082Z,16.75
2023-05-05T16:48:00.267Z,16.75
2023-05-05T16:50:26.749Z,16.72
2023-05-05T16:52:54.533Z,16.61
2023-05-05T16:55:20.951Z,16.70
2023-05-05T16:57:47.904Z,16.61
2023-05-05T17:00:15.443Z,16.50
2023-05-05T17:02:41.889Z,16.48
2023-05-05T17:05:09.091Z,16.42
2023-05-05T17:07:36.014Z,16.35
2023-05-05T17:10:03.851Z,16.34
2023-05-05T17:12:30.351Z,16.36
2023-05-05T17:14:56.794Z,16.33
2023-05-05T17:17:23.227Z,16.22
2023-05-05T17:19:50.002Z,16.16
2023-05-05T17:22:16.451Z,16.15
2023-05-05T17:24:43.072Z,16.12
2023-05-05T17:27:09.685Z,16.00
2023-05-05T17:29:40.703Z,15.87
2023-05-05T17:32:08.217Z,16.35
2023-05-05T17:34:34.858Z,16.77
2023-05-05T17:37:01.892Z,16.37
2023-05-05T17:39:28.591Z,16.13
2023-05-05T17:41:55.037Z,15.90
2023-05-05T17:44:21.647Z,15.79
2023-05-05T17:46:48.155Z,15.68
2023-05-05T17:49:14.617Z,15.58
2023-05-05T17:51:41.159Z,15.47
2023-05-05T17:54:07.554Z,15.42
2023-05-05T17:56:35.892Z,15.38
2023-05-05T17:59:02.389Z,15.31
2023-05-05T18:01:28.875Z,15.24
2023-05-05T18:03:55.691Z,15.19
2023-05-05T18:06:22.144Z,15.13
2023-05-05T18:08:49.260Z,15.10
2023-05-05T18:11:15.752Z,15.04
2023-05-05T18:13:43.115Z,14.93
2023-05-05T18:16:09.631Z,14.91
2023-05-05T18:18:36.278Z,14.86
2023-05-05T18:21:02.848Z,14.83
2023-05-05T18:23:29.345Z,14.82
2023-05-05T18:25:56.821Z,14.73
2023-05-05T18:28:23.266Z,14.70
2023-05-05T18:30:49.738Z,14.64
2023-05-05T18:33:16.200Z,14.58
2023-05-05T18:35:42.969Z,14.53
2023-05-05T18:38:09.459Z,14.47
2023-05-05T18:40:36.866Z,14.41
2023-05-05T18:43:03.559Z,14.36
2023-05-05T18:45:30.087Z,14.25
2023-05-05T18:47:56.685Z,14.13
2023-05-05T18:50:24.521Z,14.04
2023-05-05T18:52:52.638Z,13.95
2023-05-05T18:55:19.203Z,13.88
2023-05-05T18:57:45.786Z,13.81
2023-05-05T19:00:12.590Z,13.75
2023-05-05T19:02:39.116Z,13.69
2023-05-05T19:05:06.415Z,13.62
2023-05-05T19:07:35.848Z,13.52
2023-05-05T19:10:04.650Z,13.45
2023-05-05T19:12:31.301Z,13.35
2023-05-05T19:14:57.816Z,13.26
2023-05-05T19:17:24.443Z,13.17
2023-05-05T19:19:51.060Z,13.10
2023-05-05T19:22:17.663Z,13.05
2023-05-05T19:24:44.150Z,13.02
2023-05-05T19:27:15.435Z,12.95
2023-05-05T19:29:43.143Z,12.88
2023-05-05T19:32:09.883Z,12.82
2023-05-05T19:34:36.560Z,12.73
2023-05-05T19:37:03.326Z,12.68
2023-05-05T19:39:29.834Z,12.66
2023-05-05T19:41:56.244Z,12.62
2023-05-05T19:44:22.838Z,12.57
2023-05-05T19:46:50.189Z,12.53
2023-05-05T19:49:16.947Z,12.49
2023-05-05T19:51:43.743Z,12.46
2023-05-05T19:54:10.476Z,12.42
2023-05-05T19:56:37.081Z,12.37
2023-05-05T19:59:06.065Z,12.32
2023-05-05T20:01:33.889Z,12.30
2023-05-05T20:04:00.916Z,12.24
2023-05-05T20:06:27.611Z,12.20
2023-05-05T20:08:55.302Z,12.16
2023-05-05T20:11:22.223Z,12.12
2023-05-05T20:13:50.757Z,12.07
2023-05-05T20:16:18.481Z,12.02
2023-05-05T20:18:45.182Z,11.97
2023-05-05T20:21:11.809Z,11.91
2023-05-05T20:23:38.336Z,11.88
2023-05-05T20:26:05.411Z,11.86
2023-05-05T20:28:32.203Z,11.84
2023-05-05T20:31:00.462Z,11.77
2023-05-05T20:33:28.126Z,11.75
2023-05-05T20:35:54.867Z,11.74
2023-05-05T20:38:21.271Z,11.75
2023-05-05T20:40:47.860Z,11.76
2023-05-05T20:43:14.375Z,11.73
2023-05-05T20:45:41.151Z,11.71
2023-05-05T20:48:10.051Z,11.69
2023-05-05T20:50:39.906Z,11.65
2023-05-05T20:53:08.505Z,11.62
2023-05-05T20:55:35.499Z,11.59
2023-05-05T20:58:02.242Z,11.55
2023-05-05T21:00:28.800Z,11.53
2023-05-05T21:02:56.773Z,11.52
2023-05-05T21:05:23.905Z,11.51
2023-05-05T21:07:51.011Z,11.47
2023-05-05T21:10:17.483Z,11.45
2023-05-05T21:12:44.053Z,11.41
2023-05-05T21:15:11.343Z,11.38
2023-05-05T21:17:38.359Z,11.34
2023-05-05T21:20:05.262Z,11.31
2023-05-05T21:22:31.854Z,11.26
2023-05-05T21:25:11.024Z,11.24
2023-05-05T21:27:37.587Z,11.23
2023-05-05T21:30:04.482Z,11.21
2023-05-05T21:32:31.414Z,11.23
2023-05-05T21:34:58.045Z,11.22
2023-05-05T21:37:24.509Z,11.18
2023-05-05T21:39:50.990Z,11.13
2023-05-05T21:42:17.467Z,11.08
2023-05-05T21:44:43.886Z,11.02
2023-05-05T21:47:10.308Z,10.99
2023-05-05T21:49:36.842Z,10.94
2023-05-05T21:52:03.342Z,10.91
2023-05-05T21:54:30.087Z,10.88
2023-05-05T21:56:56.539Z,10.82
2023-05-05T21:59:23.052Z,10.78
2023-05-05T22:01:49.596Z,10.75
2023-05-05T22:04:16.118Z,10.72
2023-05-05T22:06:42.549Z,10.70
2023-05-05T22:09:09.009Z,10.68
2023-05-05T22:11:35.611Z,10.65
2023-05-05T22:14:02.164Z,10.65
2023-05-05T22:16:28.954Z,10.62
2023-05-05T22:18:55.449Z,10.60
2023-05-05T22:21:22.091Z,10.59
2023-05-05T22:23:48.611Z,10.58
2023-05-05T22:26:15.244Z,10.57
2023-05-05T22:28:42.846Z,10.60
2023-05-05T22:31:09.329Z,10.64
2023-05-05T22:33:36.165Z,10.65
2023-05-05T22:36:02.657Z,10.64
2023-05-05T22:38:29.430Z,10.66
2023-05-05T22:40:55.989Z,10.67
2023-05-05T22:43:22.533Z,10.69
2023-05-05T22:45:49.125Z,10.70
2023-05-05T22:48:15.572Z,10.74
2023-05-05T22:50:42.152Z,10.79
2023-05-05T22:53:08.631Z,10.86
2023-05-05T22:55:35.207Z,10.91
2023-05-05T22:58:01.693Z,10.95
2023-05-05T23:00:28.289Z,10.96
2023-05-05T23:02:55.108Z,10.99
2023-05-05T23:05:22.891Z,11.03
2023-05-05T23:07:49.405Z,11.05
2023-05-05T23:10:16.330Z,11.11
2023-05-05T23:12:42.820Z,11.15
2023-05-05T23:15:09.966Z,11.17
2023-05-05T23:17:36.605Z,11.13
2023-05-05T23:20:04.227Z,11.13
2023-05-05T23:22:30.758Z,11.14
2023-05-05T23:24:57.257Z,11.16
2023-05-05T23:27:23.938Z,11.15
2023-05-05T23:29:51.682Z,11.13
2023-05-05T23:32:18.213Z,11.08
2023-05-05T23:34:44.699Z,11.05
2023-05-05T23:37:13.054Z,11.01
2023-05-05T23:39:39.738Z,10.98
2023-05-05T23:42:06.196Z,10.97
2023-05-05T23:44:32.670Z,10.98
2023-05-05T23:46:59.098Z,11.01
2023-05-05T23:49:26.390Z,11.02
2023-05-05T23:51:52.994Z,11.04
2023-05-05T23:54:19.419Z,11.05
2023-05-05T23:56:47.684Z,11.05
2023-05-05T23:59:14.183Z,11.02
